To NAV CANADA Home Page Login to a new session Search on AWWS site Feedback and Comments Disclaimer Vers la page française équivalente Tips FAQ What's new on the site To the Forecasts and Observations / NOTAM section To "File a Flight Plan" website Publications and other links Update of the User's profile FIC Telephone Numbers My Weather Data Folder Route Weather Data Regional Weather Data Local Weather Data To the Forecasts and Observations / NOTAM section
Request Generated 04/25/2015 at 04:13:29 UTC . Weather information available at that time is displayed.

METAR/TAF

COLD LAKE/GROUP CAPTAIN R.W. MCNAIR/AB    

METAR CYOD 250400Z 09006KT 15SM FEW080 BKN240 02/M05 A2988 RMK AC2CI3 SLP146=
METAR CYOD 250300Z 10007KT 15SM FEW051 FEW080 BKN240 03/M06 A2987 RMK SC1AC1CI4 SLP142=
METAR CYOD 250200Z 07010KT 15SM FEW046 FEW080 OVC220 04/M06 A2986 RMK SC1AC2CI5 SLP134=

TAF CYOD 242330Z 2500/2524 04012KT P6SM SCT040 BKN080
FM251000 05012KT P6SM OVC030 TEMPO 2510/2514 P6SM -SHSN
FM252000 05012KT P6SM SCT030 BKN060
RMK NXT FCST BY 250600Z=
Your time UTC time
Weather data provided by Environment Canada and NAV CANADA